Time;durP1;ratioP1;P1;durP2;ratioP2;P2;SDS_P1;SDS_P2;PMS_P1;PMS_P2;Temp;Humidity;BMP_temperature;BMP_pressure;BME280_temperature;BME280_humidity;BME280_pressure;Samples;Min_cycle;Max_cycle;Signal;HPM_P1;HPM_P2
2023/11/05 00:00:56;;;;;;;3.83;1.30;;;10.10;99.90;;;10.57;100.00;94239.59;5028498;28;20488;-82
2023/11/05 00:03:27;;;;;;;2.17;1.20;;;10.10;99.90;;;10.55;100.00;94236.47;5029214;28;20450;-82
2023/11/05 00:05:58;;;;;;;4.47;1.57;;;10.10;99.90;;;10.57;100.00;94225.75;5025228;28;20458;-82
2023/11/05 00:08:29;;;;;;;3.00;1.33;;;10.10;99.90;;;10.58;100.00;94212.44;5030954;28;21089;-82
2023/11/05 00:11:02;;;;;;;2.23;1.03;;;10.20;99.90;;;10.60;100.00;94207.69;5030913;28;20565;-82
2023/11/05 00:13:32;;;;;;;6.40;1.30;;;10.10;99.90;;;10.62;100.00;94212.63;5029271;28;20505;-82
2023/11/05 00:16:03;;;;;;;4.20;1.27;;;10.10;99.90;;;10.60;100.00;94199.84;5027477;28;20485;-82
2023/11/05 00:18:33;;;;;;;3.67;1.10;;;10.10;99.90;;;10.63;100.00;94218.63;5030223;28;20825;-82
2023/11/05 00:21:04;;;;;;;2.43;1.17;;;10.10;99.90;;;10.63;100.00;94219.41;5028186;28;20497;-83
2023/11/05 00:23:35;;;;;;;2.90;0.90;;;10.10;99.90;;;10.63;100.00;94223.84;5028399;28;20540;-82
2023/11/05 00:26:07;;;;;;;1.07;0.87;;;10.00;99.90;;;10.64;100.00;94215.75;5026344;28;20477;-82
2023/11/05 00:28:37;;;;;;;1.87;1.03;;;10.10;99.90;;;10.64;100.00;94220.19;5027447;28;20505;-82
2023/11/05 00:31:08;;;;;;;3.23;1.00;;;10.10;99.90;;;10.62;100.00;94211.88;5026275;28;20552;-82
2023/11/05 00:33:38;;;;;;;1.87;1.10;;;10.20;99.90;;;10.63;100.00;94219.41;5028784;28;20484;-82
2023/11/05 00:36:11;;;;;;;3.67;0.90;;;10.20;99.90;;;10.56;100.00;94204.09;5027026;28;20458;-82
2023/11/05 00:38:42;;;;;;;2.57;1.23;;;10.10;99.90;;;10.58;100.00;94182.91;5027337;28;20817;-81
2023/11/05 00:41:11;;;;;;;1.40;0.90;;;10.10;99.90;;;10.58;100.00;94181.09;5026387;28;20486;-81
2023/11/05 00:43:40;;;;;;;3.00;1.20;;;10.20;99.90;;;10.58;100.00;94181.09;5027049;28;20520;-82
2023/11/05 00:46:12;;;;;;;4.20;1.20;;;10.10;99.90;;;10.56;100.00;94167.53;5028268;28;20466;-82
2023/11/05 00:48:42;;;;;;;3.37;1.10;;;10.10;99.90;;;10.59;100.00;94160.94;5026864;28;20458;-82
2023/11/05 00:51:12;;;;;;;2.40;1.00;;;10.10;99.90;;;10.60;100.00;94162.50;5027095;28;20497;-82
2023/11/05 00:53:43;;;;;;;2.30;0.97;;;10.10;99.90;;;10.58;100.00;94165.41;5027173;28;20485;-82
2023/11/05 00:56:12;;;;;;;3.07;1.00;;;10.20;99.90;;;10.55;100.00;94154.75;5026150;28;20466;-82
2023/11/05 00:58:41;;;;;;;4.70;1.30;;;10.10;99.90;;;10.54;100.00;94153.97;5026037;28;20491;-82
2023/11/05 01:01:11;;;;;;;4.47;1.20;;;10.10;99.90;;;10.53;100.00;94147.19;5027344;28;20500;-82
2023/11/05 01:03:42;;;;;;;1.57;0.93;;;10.10;99.90;;;10.52;100.00;94145.63;5024872;28;20489;-82
2023/11/05 01:06:13;;;;;;;0.80;0.80;;;10.00;99.90;;;10.47;100.00;94137.09;5027538;28;20474;-82
2023/11/05 01:08:45;;;;;;;7.80;1.30;;;10.00;99.90;;;10.47;100.00;94129.25;5027016;28;20497;-82
2023/11/05 01:11:14;;;;;;;2.93;1.43;;;10.00;99.90;;;10.49;100.00;94130.53;5029465;28;21274;-82
2023/11/05 01:13:45;;;;;;;5.43;1.40;;;10.00;99.90;;;10.46;100.00;94123.25;5027432;28;20453;-82
2023/11/05 01:16:15;;;;;;;7.03;1.17;;;10.10;99.90;;;10.48;100.00;94121.13;5029617;28;20473;-82
2023/11/05 01:18:45;;;;;;;13.83;1.93;;;10.00;99.90;;;10.47;100.00;94114.38;5028537;28;20460;-82
2023/11/05 01:21:15;;;;;;;4.07;1.17;;;10.00;99.90;;;10.42;100.00;94117.03;5026812;28;20589;-82
2023/11/05 01:23:46;;;;;;;4.73;1.67;;;10.00;99.90;;;10.42;100.00;94127.50;5028220;28;20457;-82
2023/11/05 01:26:17;;;;;;;1.37;0.90;;;9.90;99.90;;;10.40;100.00;94124.41;5027323;28;20489;-82
2023/11/05 01:28:49;;;;;;;4.07;1.50;;;9.90;99.90;;;10.44;100.00;94117.56;5028527;28;20538;-82
2023/11/05 01:31:18;;;;;;;2.77;1.30;;;10.00;99.90;;;10.45;100.00;94102.63;5028373;28;20500;-82
2023/11/05 01:33:47;;;;;;;5.40;1.40;;;10.00;99.90;;;10.46;100.00;94104.97;5028093;28;20527;-81
2023/11/05 01:36:18;;;;;;;3.27;1.40;;;9.90;99.90;;;10.46;100.00;94107.59;5026550;28;20454;-82
2023/11/05 01:38:50;;;;;;;5.10;1.40;;;10.00;99.90;;;10.45;100.00;94111.25;5026406;28;20486;-82
2023/11/05 01:41:21;;;;;;;6.40;1.20;;;10.00;99.90;;;10.47;100.00;94122.22;5027325;28;20502;-82
2023/11/05 01:43:51;;;;;;;4.23;1.30;;;10.00;99.90;;;10.45;100.00;94113.84;5026024;28;20458;-82
2023/11/05 01:46:21;;;;;;;3.80;1.37;;;9.90;99.90;;;10.48;100.00;94112.53;5028053;28;20465;-82
2023/11/05 01:48:51;;;;;;;3.67;1.23;;;10.00;99.90;;;10.49;100.00;94107.00;5027121;28;20621;-82
2023/11/05 01:51:22;;;;;;;2.40;1.43;;;10.00;99.90;;;10.50;100.00;94105.19;5025765;28;20462;-82
2023/11/05 01:53:56;;;;;;;2.47;1.10;;;10.00;99.90;;;10.48;100.00;94099.47;5028695;28;20474;-82
2023/11/05 01:56:31;;;;;;;3.80;1.90;;;10.00;99.90;;;10.47;100.00;94096.09;5026547;28;21049;-82
2023/11/05 01:59:03;;;;;;;8.23;1.10;;;10.10;99.90;;;10.45;100.00;94090.34;5025191;28;20469;-82
2023/11/05 02:01:33;;;;;;;6.10;1.43;;;10.00;99.90;;;10.46;100.00;94104.97;5026645;28;20485;-82
2023/11/05 02:04:03;;;;;;;1.17;1.00;;;10.00;99.90;;;10.46;100.00;94106.81;5028769;28;21035;-81
2023/11/05 02:06:34;;;;;;;1.70;0.90;;;10.00;99.90;;;10.47;100.00;94098.69;5030532;28;20536;-81
2023/11/05 02:09:06;;;;;;;14.53;1.53;;;10.00;99.90;;;10.48;100.00;94096.88;5030609;28;20465;-82
2023/11/05 02:11:35;;;;;;;6.60;1.10;;;10.00;99.90;;;10.47;100.00;94090.88;5030589;28;20465;-81
2023/11/05 02:14:05;;;;;;;5.90;1.40;;;10.00;99.90;;;10.48;100.00;94092.41;5030351;28;20468;-81
2023/11/05 02:16:35;;;;;;;12.03;1.30;;;10.00;99.90;;;10.46;100.00;94084.09;5030749;28;20458;-82
2023/11/05 02:19:06;;;;;;;4.90;1.67;;;10.00;99.90;;;10.47;100.00;94084.88;5030391;28;20493;-82
2023/11/05 02:21:43;;;;;;;2.53;1.10;;;10.00;99.90;;;10.46;100.00;94078.84;5029045;28;20584;-82
2023/11/05 02:24:15;;;;;;;1.50;1.20;;;10.10;99.90;;;10.44;100.00;94078.38;5030121;28;20452;-81
2023/11/05 02:26:56;;;;;;;3.70;1.40;;;10.10;99.90;;;10.42;100.00;94062.19;5028047;28;20552;-81
2023/11/05 02:29:25;;;;;;;2.20;1.03;;;10.10;99.90;;;10.45;100.00;94076.50;5029060;28;20462;-81
2023/11/05 02:31:54;;;;;;;3.87;1.43;;;10.00;99.90;;;10.45;100.00;94066.84;5029840;28;20481;-81
2023/11/05 02:34:24;;;;;;;4.10;1.33;;;10.00;99.90;;;10.44;100.00;94065.31;5029034;28;20465;-82
2023/11/05 02:36:54;;;;;;;2.53;1.20;;;10.00;99.90;;;10.44;100.00;94067.16;5028571;28;20968;-82
2023/11/05 02:39:26;;;;;;;2.73;1.40;;;9.90;99.90;;;10.43;100.00;94063.75;5031065;28;20466;-81
2023/11/05 02:41:57;;;;;;;7.80;1.00;;;9.90;99.90;;;10.44;100.00;94067.16;5030476;28;20517;-82
2023/11/05 02:44:28;;;;;;;6.13;1.30;;;10.00;99.90;;;10.44;100.00;94052.25;5030265;28;20461;-81
2023/11/05 02:46:58;;;;;;;1.83;1.13;;;9.90;99.90;;;10.46;100.00;94065.03;5028303;28;20465;-82
2023/11/05 02:49:28;;;;;;;3.87;1.33;;;10.00;99.90;;;10.46;100.00;94075.47;5028667;28;20561;-82
2023/11/05 02:51:58;;;;;;;3.00;1.20;;;9.90;99.90;;;10.40;100.00;94069.56;5025522;28;20502;-81
2023/11/05 02:54:29;;;;;;;2.20;0.90;;;9.90;99.90;;;10.41;100.00;94065.88;5030808;28;20482;-82
2023/11/05 02:57:00;;;;;;;3.00;1.27;;;10.00;99.90;;;10.43;100.00;94068.97;5028354;28;20472;-82
2023/11/05 02:59:30;;;;;;;1.97;1.07;;;10.00;99.90;;;10.43;100.00;94057.75;5030818;28;20456;-82
2023/11/05 03:02:01;;;;;;;10.33;1.40;;;9.90;99.90;;;10.39;100.00;94056.78;5030089;28;20496;-81
2023/11/05 03:04:31;;;;;;;3.67;1.00;;;10.00;99.90;;;10.40;100.00;94056.50;5030945;28;20965;-82
2023/11/05 03:07:02;;;;;;;3.83;1.37;;;10.00;99.90;;;10.40;100.00;94056.50;5028546;28;20504;-82
2023/11/05 03:09:34;;;;;;;6.00;1.20;;;9.90;99.90;;;10.38;100.00;94053.38;5029012;28;21024;-81
2023/11/05 03:12:06;;;;;;;3.80;0.97;;;9.90;99.90;;;10.41;100.00;94058.03;5027693;28;20478;-82
2023/11/05 03:14:36;;;;;;;2.53;1.10;;;9.90;99.90;;;10.39;100.00;94047.09;5029833;28;20988;-82
2023/11/05 03:17:06;;;;;;;3.87;1.37;;;10.00;99.90;;;10.41;100.00;94039.75;5029514;28;20595;-82
2023/11/05 03:19:37;;;;;;;7.33;1.43;;;9.90;99.90;;;10.39;100.00;94041.88;5030539;28;20834;-83
2023/11/05 03:22:06;;;;;;;1.63;0.90;;;10.00;99.90;;;10.41;100.00;94042.34;5028332;28;20497;-82
2023/11/05 03:24:38;;;;;;;3.50;1.00;;;9.90;99.90;;;10.42;100.00;94036.09;5034866;28;20938;-82
2023/11/05 03:27:07;;;;;;;3.40;1.10;;;9.90;99.90;;;10.38;100.00;94032.50;5030493;28;20972;-81
2023/11/05 03:29:37;;;;;;;6.17;1.23;;;9.90;99.90;;;10.36;100.00;94037.22;5030433;28;20970;-82
2023/11/05 03:32:07;;;;;;;2.07;0.90;;;9.90;99.90;;;10.38;100.00;94029.88;5028136;28;20477;-82
2023/11/05 03:34:38;;;;;;;2.73;1.20;;;9.80;99.90;;;10.41;100.00;94024.09;5030914;28;20458;-81
2023/11/05 03:37:07;;;;;;;3.13;0.90;;;9.80;99.90;;;10.41;100.00;94024.09;5030355;28;20949;-81
2023/11/05 03:39:38;;;;;;;10.90;1.40;;;9.80;99.90;;;10.42;100.00;94022.25;5029305;28;20531;-82
2023/11/05 03:42:08;;;;;;;3.80;1.13;;;9.80;99.90;;;10.38;100.00;94019.44;5028163;28;20496;-82
2023/11/05 03:44:38;;;;;;;6.90;1.17;;;9.90;99.90;;;10.33;100.00;94024.75;5029126;28;20464;-82
2023/11/05 03:47:09;;;;;;;1.70;1.00;;;9.90;99.90;;;10.31;100.00;94029.47;5028327;28;20468;-82
2023/11/05 03:49:39;;;;;;;2.30;1.10;;;9.80;99.90;;;10.31;100.00;94023.50;5029115;28;20482;-82
2023/11/05 03:52:11;;;;;;;1.37;0.87;;;9.80;99.90;;;10.30;100.00;94033.16;5029797;28;20809;-81
2023/11/05 03:54:43;;;;;;;3.90;1.20;;;9.70;99.90;;;10.30;100.00;94035.75;5027922;28;21039;-82
2023/11/05 03:57:13;;;;;;;2.20;1.10;;;9.80;99.90;;;10.28;100.00;94035.25;5027310;28;20458;-82
2023/11/05 03:59:42;;;;;;;1.30;1.00;;;9.80;99.90;;;10.29;100.00;94026.38;5029400;28;20469;-82
2023/11/05 04:02:12;;;;;;;3.43;1.10;;;9.80;99.90;;;10.28;100.00;94032.63;5027575;28;20508;-81
2023/11/05 04:04:45;;;;;;;7.23;1.00;;;9.70;99.90;;;10.28;100.00;94026.63;5030840;28;20474;-81
2023/11/05 04:07:15;;;;;;;1.30;1.00;;;9.80;99.90;;;10.29;100.00;94026.38;5028724;28;20462;-82
2023/11/05 04:09:46;;;;;;;2.63;1.00;;;9.80;99.90;;;10.30;100.00;94022.72;5027511;28;20453;-82
2023/11/05 04:12:18;;;;;;;3.67;1.30;;;9.80;99.90;;;10.31;100.00;94031.31;5028891;28;20615;-81
2023/11/05 04:14:48;;;;;;;3.60;1.00;;;9.80;99.90;;;10.29;100.00;94022.97;5026900;28;20462;-82
2023/11/05 04:17:18;;;;;;;1.70;0.80;;;9.80;99.90;;;10.29;100.00;94028.97;5027807;28;20498;-81
2023/11/05 04:19:48;;;;;;;2.07;0.93;;;9.80;99.90;;;10.31;100.00;94024.25;5027147;28;20464;-81
2023/11/05 04:22:18;;;;;;;1.00;0.90;;;9.80;99.90;;;10.32;100.00;94031.03;5026368;28;21240;-82
2023/11/05 04:24:51;;;;;;;3.90;1.10;;;9.90;99.90;;;10.33;100.00;94032.56;5029286;28;21028;-82
2023/11/05 04:27:21;;;;;;;2.23;1.10;;;9.80;99.90;;;10.29;100.00;94031.59;5026512;28;20553;-81
2023/11/05 04:29:51;;;;;;;2.93;1.20;;;9.80;99.90;;;10.30;100.00;94033.16;5026012;28;20461;-82
2023/11/05 04:32:21;;;;;;;2.53;1.10;;;9.80;99.90;;;10.27;100.00;94027.72;5026296;28;20527;-81
2023/11/05 04:34:51;;;;;;;1.57;1.00;;;9.90;99.90;;;10.30;100.00;94029.75;5029592;28;20462;-82
2023/11/05 04:37:21;;;;;;;2.70;1.00;;;9.80;99.90;;;10.31;100.00;94026.84;5027207;28;20462;-81
2023/11/05 04:39:53;;;;;;;1.93;1.00;;;9.80;99.90;;;10.28;100.00;94022.19;5029663;28;20991;-81
2023/11/05 04:42:22;;;;;;;4.17;1.20;;;9.90;99.90;;;10.28;100.00;94024.81;5028890;28;20493;-82
2023/11/05 04:44:52;;;;;;;1.00;0.90;;;9.90;99.90;;;10.31;100.00;94028.72;5028634;28;20461;-82
2023/11/05 04:47:21;;;;;;;3.60;1.00;;;9.80;99.90;;;10.33;100.00;94032.56;5029419;28;20474;-82
2023/11/05 04:49:52;;;;;;;1.67;0.97;;;9.70;99.90;;;10.34;100.00;94023.69;5030293;28;21088;-82
2023/11/05 04:52:23;;;;;;;2.07;0.90;;;9.80;99.90;;;10.33;100.00;94019.53;5026997;28;20508;-81
2023/11/05 04:54:55;;;;;;;2.00;0.90;;;9.80;99.90;;;10.31;100.00;94039.91;5027901;28;20450;-81
2023/11/05 04:57:26;;;;;;;1.33;0.90;;;9.80;99.90;;;10.29;100.00;94030.81;5029220;28;20465;-81
2023/11/05 04:59:56;;;;;;;2.10;1.27;;;9.90;99.90;;;10.31;100.00;94028.72;5027591;28;20458;-82
2023/11/05 05:02:26;;;;;;;1.73;0.80;;;9.80;99.90;;;10.33;100.00;94027.34;5026420;28;20493;-82
2023/11/05 05:04:56;;;;;;;1.50;0.80;;;9.80;99.90;;;10.35;100.00;94035.66;5028726;28;20466;-82
2023/11/05 05:07:26;;;;;;;5.87;1.10;;;9.80;99.90;;;10.35;100.00;94024.44;5026579;28;20473;-81
2023/11/05 05:09:58;;;;;;;4.27;0.90;;;9.80;99.90;;;10.35;100.00;94029.66;5026922;28;20960;-82
2023/11/05 05:12:28;;;;;;;3.00;1.00;;;9.80;99.90;;;10.34;100.00;94021.09;5026216;28;20834;-82
2023/11/05 05:15:03;;;;;;;2.63;0.80;;;9.80;99.90;;;10.30;100.00;94025.31;5026890;28;20466;-82
2023/11/05 05:17:33;;;;;;;0.80;0.80;;;9.80;99.90;;;10.33;100.00;94014.31;5028479;28;20877;-82
2023/11/05 05:20:04;;;;;;;1.30;0.90;;;9.80;99.90;;;10.33;100.00;94014.31;5027596;28;20964;-82
2023/11/05 05:22:34;;;;;;;1.47;0.80;;;9.90;99.90;;;10.31;100.00;94013.78;5026151;28;20520;-81
2023/11/05 05:25:07;;;;;;;13.07;1.10;;;9.80;99.90;;;10.30;100.00;94020.09;5029936;28;20470;-81
2023/11/05 05:27:38;;;;;;;3.30;1.20;;;9.80;99.90;;;10.31;100.00;94024.25;5029481;28;20486;-82
2023/11/05 05:30:14;;;;;;;19.43;9.37;;;9.80;99.90;;;10.32;100.00;94027.63;5023313;28;20462;-79
2023/11/05 05:32:45;;;;;;;1.90;1.30;;;9.80;99.90;;;10.34;100.00;94034.13;5024220;28;20471;-81
2023/11/05 05:35:14;;;;;;;6.00;0.97;;;9.80;99.90;;;10.36;100.00;94026.78;5025705;28;20600;-81
2023/11/05 05:37:44;;;;;;;1.63;0.97;;;9.80;99.90;;;10.36;100.00;94037.22;5025480;28;20557;-81
2023/11/05 05:40:16;;;;;;;1.10;0.80;;;9.80;99.90;;;10.35;100.00;94038.28;5021628;28;20519;-81
2023/11/05 05:42:46;;;;;;;1.10;0.90;;;9.90;99.90;;;10.32;100.00;94032.84;5024031;28;20506;-81
2023/11/05 05:45:19;;;;;;;35.00;17.20;;;9.90;99.90;;;10.35;100.00;94043.50;5023358;28;20462;-78
2023/11/05 05:47:50;;;;;;;1.83;0.90;;;9.90;99.90;;;10.33;100.00;94043.03;5024978;28;20458;-81
2023/11/05 05:50:24;;;;;;;3.13;1.40;;;9.90;99.90;;;10.35;100.00;94046.13;5028541;28;20454;-81
2023/11/05 05:52:54;;;;;;;1.70;0.90;;;9.80;99.90;;;10.35;100.00;94046.13;5027475;28;20583;-81
2023/11/05 05:55:25;;;;;;;2.40;1.00;;;9.80;99.90;;;10.34;100.00;94064.69;5026004;28;20466;-81
2023/11/05 05:57:54;;;;;;;1.37;0.80;;;9.90;99.90;;;10.26;100.00;94049.66;5024767;28;20515;-80
2023/11/05 06:00:25;;;;;;;2.10;1.03;;;9.80;99.90;;;10.24;100.00;94054.41;5024905;28;20850;-80
2023/11/05 06:02:55;;;;;;;2.63;1.00;;;9.70;99.90;;;10.27;100.00;94059.81;5027498;28;20508;-82
2023/11/05 06:05:24;;;;;;;1.20;0.90;;;9.80;99.90;;;10.27;100.00;94048.59;5027868;28;20871;-77
2023/11/05 06:07:54;;;;;;;2.20;1.20;;;9.80;99.90;;;10.29;100.00;94055.09;5025949;28;20477;-81
2023/11/05 06:10:25;;;;;;;1.50;0.90;;;9.80;99.90;;;10.31;100.00;94058.19;5023056;28;20462;-81
2023/11/05 06:12:56;;;;;;;1.20;1.00;;;9.80;99.90;;;10.30;100.00;94053.25;5024715;28;20496;-81
2023/11/05 06:15:26;;;;;;;2.00;0.90;;;9.80;99.90;;;10.27;100.00;94054.59;5023209;28;20865;-82
2023/11/05 06:17:57;;;;;;;0.90;0.70;;;9.80;99.90;;;10.30;100.00;94061.88;5023761;28;20523;-81
2023/11/05 06:20:29;;;;;;;1.70;0.90;;;9.80;99.90;;;10.28;100.00;94052.75;5024263;28;20960;-81
2023/11/05 06:23:01;;;;;;;0.80;0.70;;;9.70;99.90;;;10.29;100.00;94070.75;5023216;28;21045;-81
2023/11/05 06:25:36;;;;;;;1.33;0.80;;;9.80;99.90;;;10.28;100.00;94061.34;5026222;28;20537;-80
2023/11/05 06:28:07;;;;;;;0.80;0.70;;;9.60;99.90;;;10.30;100.00;94068.91;5026825;28;20468;-82
2023/11/05 06:30:37;;;;;;;1.17;0.70;;;9.70;99.90;;;10.29;100.00;94064.75;5025853;28;21046;-81
2023/11/05 06:33:09;;;;;;;2.10;0.83;;;9.70;99.90;;;10.28;100.00;94087.47;5022571;28;20488;-81
2023/11/05 06:35:41;;;;;;;1.33;1.20;;;9.80;99.90;;;10.25;100.00;94072.38;5024635;28;20462;-82
2023/11/05 06:38:12;;;;;;;3.57;1.80;;;9.70;99.90;;;10.25;100.00;94082.03;5022505;28;20466;-79
2023/11/05 06:40:42;;;;;;;1.57;1.20;;;9.70;99.90;;;10.24;100.00;94076.03;5022843;28;21304;-82
2023/11/05 06:43:13;;;;;;;0.80;0.70;;;9.80;99.90;;;10.28;100.00;94082.25;5026725;28;20483;-81
2023/11/05 06:45:44;;;;;;;4.10;1.10;;;9.80;99.90;;;10.29;100.00;94078.59;5022721;28;20553;-81
2023/11/05 06:48:13;;;;;;;3.27;0.90;;;9.80;99.90;;;10.31;100.00;94086.91;5022000;28;21071;-81
2023/11/05 06:50:44;;;;;;;3.90;0.80;;;9.80;99.90;;;10.28;100.00;94092.69;5023827;28;20465;-82
2023/11/05 06:53:16;;;;;;;3.43;1.00;;;9.70;99.90;;;10.31;100.00;94096.59;5026616;28;20489;-83
2023/11/05 06:55:49;;;;;;;1.27;0.93;;;9.80;99.90;;;10.29;100.00;94096.09;5027079;28;20458;-81
2023/11/05 06:58:19;;;;;;;1.43;0.90;;;9.90;99.90;;;10.28;100.00;94103.13;5028028;28;20465;-81
2023/11/05 07:00:50;;;;;;;3.50;1.10;;;9.90;99.90;;;10.29;100.00;94099.47;5025274;28;20458;-81
2023/11/05 07:03:23;;;;;;;1.30;0.87;;;9.80;99.90;;;10.29;100.00;94104.69;5026005;28;20893;-81
2023/11/05 07:05:55;;;;;;;3.57;0.90;;;9.80;99.90;;;10.25;100.00;94114.16;5030138;28;20556;-81
2023/11/05 07:08:24;;;;;;;2.73;1.00;;;9.70;99.90;;;10.26;100.00;94131.38;5027600;28;20462;-81
2023/11/05 07:10:57;;;;;;;0.90;0.80;;;9.90;99.90;;;10.23;100.00;94123.31;5025046;28;20504;-78
2023/11/05 07:13:29;;;;;;;1.20;0.93;;;9.80;99.90;;;10.25;100.00;94129.81;5028990;28;20988;-81
2023/11/05 07:15:59;;;;;;;0.80;0.80;;;9.80;99.90;;;10.28;100.00;94134.47;5028206;28;20504;-81
2023/11/05 07:18:29;;;;;;;1.83;0.80;;;9.80;99.90;;;10.27;100.00;94146.00;5024124;28;20476;-80
2023/11/05 07:21:03;;;;;;;0.80;0.70;;;9.80;99.90;;;10.27;100.00;94143.38;5023672;28;20890;-80
2023/11/05 07:23:34;;;;;;;1.67;0.80;;;9.80;99.90;;;10.25;100.00;94149.91;5027773;28;20502;-80
2023/11/05 07:26:07;;;;;;;3.73;0.83;;;9.90;99.90;;;10.28;100.00;94149.34;5027328;28;20462;-80
2023/11/05 07:28:38;;;;;;;2.30;1.10;;;9.80;99.90;;;10.26;100.00;94157.47;5025167;28;20512;-81
2023/11/05 07:31:13;;;;;;;2.93;0.93;;;9.90;99.90;;;10.24;100.00;94164.78;5027318;28;20497;-81
2023/11/05 07:33:44;;;;;;;3.33;0.97;;;9.90;99.90;;;10.25;100.00;94176.81;5029084;28;20543;-81
2023/11/05 07:36:15;;;;;;;2.10;0.90;;;9.80;99.90;;;10.24;100.00;94170.03;5029193;28;20462;-80
2023/11/05 07:38:47;;;;;;;1.13;0.83;;;9.80;99.90;;;10.25;100.00;94166.34;5025089;28;21069;-81
2023/11/05 07:41:18;;;;;;;2.53;0.90;;;9.80;99.90;;;10.28;100.00;94180.69;5027670;28;20458;-82
2023/11/05 07:43:49;;;;;;;3.40;1.47;;;9.70;99.90;;;10.31;100.00;94174.94;5021778;28;20480;-81
2023/11/05 07:46:18;;;;;;;5.23;0.97;;;9.80;99.90;;;10.33;100.00;94191.06;5026526;28;20465;-81
2023/11/05 07:48:48;;;;;;;2.80;0.97;;;9.90;99.90;;;10.33;100.00;94198.91;5024338;28;20963;-82
2023/11/05 07:51:22;;;;;;;2.10;0.93;;;9.90;99.90;;;10.35;100.00;94202.78;5027913;28;20505;-80
2023/11/05 07:53:52;;;;;;;1.37;0.83;;;9.90;99.90;;;10.37;100.00;94211.13;5025887;28;21189;-81
2023/11/05 07:56:24;;;;;;;1.00;0.70;;;9.90;99.90;;;10.32;100.00;94208.56;5031112;28;20475;-81
2023/11/05 07:58:54;;;;;;;4.10;1.03;;;9.90;99.90;;;10.33;100.00;94210.13;5027464;28;20461;-81
2023/11/05 08:01:23;;;;;;;1.07;0.80;;;10.00;99.90;;;10.32;100.00;94216.41;5025363;28;20465;-81
2023/11/05 08:03:52;;;;;;;1.37;0.80;;;10.00;99.90;;;10.33;100.00;94225.03;5024829;28;20513;-81
2023/11/05 08:06:24;;;;;;;3.80;0.80;;;9.90;99.90;;;10.35;100.00;94231.50;5029755;28;20458;-81
2023/11/05 08:08:55;;;;;;;1.63;0.73;;;10.00;99.90;;;10.32;100.00;94249.56;5025122;28;20462;-81
2023/11/05 08:11:26;;;;;;;3.37;0.90;;;10.00;99.90;;;10.35;100.00;94247.19;5023321;28;20530;-83
2023/11/05 08:14:00;;;;;;;5.80;0.90;;;10.00;99.90;;;10.35;100.00;94249.78;5025417;28;20949;-81
2023/11/05 08:16:31;;;;;;;4.60;0.90;;;10.00;99.90;;;10.39;100.00;94250.78;5026213;28;20549;-80
2023/11/05 08:19:05;;;;;;;2.20;1.20;;;9.90;99.90;;;10.44;100.00;94266.41;5026417;28;20454;-81
2023/11/05 08:21:35;;;;;;;1.40;0.90;;;10.00;99.90;;;10.39;100.00;94276.13;5022896;28;20470;-81
2023/11/05 08:24:08;;;;;;;1.20;0.87;;;10.00;99.90;;;10.38;100.00;94280.56;5027508;28;20481;-81
2023/11/05 08:26:39;;;;;;;0.80;0.70;;;9.90;99.90;;;10.39;100.00;94287.34;5004551;28;20466;-81
2023/11/05 08:29:09;;;;;;;2.83;0.90;;;10.00;99.90;;;10.44;100.00;94291.75;5025423;28;20458;-81
2023/11/05 08:31:42;;;;;;;0.80;0.80;;;10.00;99.90;;;10.42;100.00;94302.47;5026447;28;20527;-81
2023/11/05 08:34:16;;;;;;;2.30;0.90;;;10.00;99.90;;;10.45;100.00;94306.34;5026579;28;20475;-81
2023/11/05 08:36:45;;;;;;;1.60;0.80;;;9.90;99.90;;;10.48;100.00;94305.81;5027370;28;20470;-81
2023/11/05 08:39:19;;;;;;;0.80;0.70;;;10.00;99.90;;;10.48;100.00;94311.78;5024634;28;20465;-81
2023/11/05 08:41:51;;;;;;;3.13;0.80;;;9.90;99.90;;;10.52;100.00;94312.00;5024721;28;20468;-81
2023/11/05 08:44:21;;;;;;;0.80;0.70;;;10.10;99.90;;;10.50;100.00;94332.41;5023930;28;20565;-81
2023/11/05 08:46:51;;;;;;;0.90;0.80;;;10.00;99.90;;;10.49;100.00;94318.56;5022209;28;20466;-81
2023/11/05 08:49:24;;;;;;;1.00;0.80;;;10.10;99.90;;;10.48;100.00;94330.06;5027408;28;22325;-80
2023/11/05 08:51:54;;;;;;;1.33;0.80;;;10.00;99.90;;;10.51;100.00;94340.00;5025392;28;20500;-81
2023/11/05 08:54:24;;;;;;;2.07;0.80;;;10.10;99.90;;;10.56;100.00;94354.81;5025623;28;20489;-81
2023/11/05 08:56:54;;;;;;;3.57;0.70;;;10.10;99.90;;;10.57;100.00;94366.81;5027461;28;20476;-81
2023/11/05 08:59:26;;;;;;;2.03;0.93;;;10.10;99.90;;;10.51;100.00;94366.13;5023322;28;20667;-81
2023/11/05 09:01:55;;;;;;;2.23;0.83;;;10.10;99.90;;;10.53;100.00;94374.44;5022419;28;20465;-81
2023/11/05 09:04:25;;;;;;;82.73;43.73;;;10.20;99.90;;;10.56;100.00;94373.09;5024900;28;20584;-81
2023/11/05 09:06:55;;;;;;;3.13;1.73;;;10.20;99.90;;;10.58;100.00;94384.84;5026908;28;20460;-81
2023/11/05 09:09:24;;;;;;;2.40;0.80;;;10.10;99.90;;;10.57;100.00;94372.06;5023925;28;20473;-81
2023/11/05 09:11:56;;;;;;;1.10;0.70;;;10.00;99.90;;;10.63;100.00;94396.28;5025194;28;20581;-81
2023/11/05 09:14:25;;;;;;;1.80;0.73;;;10.10;99.90;;;10.60;100.00;94393.19;5025841;28;20532;-81
2023/11/05 09:16:56;;;;;;;2.20;0.80;;;10.10;99.90;;;10.62;100.00;94390.28;5023418;28;21678;-80
2023/11/05 09:19:25;;;;;;;0.80;0.70;;;10.10;99.90;;;10.66;100.00;94395.72;5024178;28;20961;-80
2023/11/05 09:21:55;;;;;;;1.00;0.80;;;10.20;99.90;;;10.69;100.00;94405.66;5023989;28;20465;-81
2023/11/05 09:24:27;;;;;;;1.10;0.80;;;10.20;99.90;;;10.68;100.00;94410.09;5026346;28;20490;-80
2023/11/05 09:26:58;;;;;;;4.40;0.83;;;10.20;99.90;;;10.69;100.00;94416.09;5028272;28;20876;-82
2023/11/05 09:29:28;;;;;;;1.23;0.87;;;10.20;99.90;;;10.75;100.00;94425.44;5027247;28;20453;-81
2023/11/05 09:31:57;;;;;;;0.90;0.80;;;10.20;99.90;;;10.74;100.00;94434.31;5025712;28;20535;-81
2023/11/05 09:34:27;;;;;;;3.27;1.43;;;10.30;99.90;;;10.77;100.00;94428.53;5024014;28;21202;-81
2023/11/05 09:36:57;;;;;;;2.93;1.17;;;10.30;99.90;;;10.74;100.00;94444.78;5030051;28;20465;-81
2023/11/05 09:39:28;;;;;;;1.20;0.80;;;10.30;99.90;;;10.74;100.00;94457.84;5026250;28;20489;-81
2023/11/05 09:42:00;;;;;;;0.90;0.77;;;10.30;99.90;;;10.78;100.00;94458.84;5025711;28;20465;-80
2023/11/05 09:44:30;;;;;;;1.03;0.77;;;10.40;99.90;;;10.82;100.00;94462.47;5025526;28;20489;-81
2023/11/05 09:47:03;;;;;;;1.00;0.90;;;10.40;99.90;;;10.83;100.00;94462.19;5022170;28;20469;-81
2023/11/05 09:49:33;;;;;;;3.40;0.80;;;10.30;99.90;;;10.86;100.00;94469.50;5022453;28;20463;-81
2023/11/05 09:52:03;;;;;;;0.80;0.70;;;10.40;99.90;;;10.86;100.00;94473.94;5024947;28;21151;-78
2023/11/05 09:54:36;;;;;;;2.97;1.10;;;10.30;99.90;;;10.95;100.00;94482.72;5024968;28;20455;-81
2023/11/05 09:57:09;;;;;;;1.87;1.00;;;10.40;99.90;;;11.02;100.00;94489.19;5025659;28;20552;-81
2023/11/05 09:59:47;;;;;;;1.40;0.70;;;10.40;99.90;;;11.04;100.00;94494.91;5025649;28;20549;-81
2023/11/05 10:02:17;;;;;;;0.90;0.77;;;10.50;99.90;;;11.03;100.00;94498.59;5025463;28;20468;-81
2023/11/05 10:04:46;;;;;;;1.10;0.70;;;10.50;99.90;;;11.04;100.00;94507.19;5027732;28;20489;-80
2023/11/05 10:07:16;;;;;;;2.50;0.90;;;10.60;99.90;;;11.08;100.00;94510.81;5023724;28;20462;-81
2023/11/05 10:09:46;;;;;;;1.20;0.80;;;10.60;99.90;;;11.11;100.00;94518.09;5021145;28;20470;-81
2023/11/05 10:12:18;;;;;;;1.70;1.60;;;10.60;99.90;;;11.15;100.00;94518.34;5019377;28;20466;-81
2023/11/05 10:14:47;;;;;;;3.40;0.90;;;10.70;99.90;;;11.11;100.00;94512.88;5023482;28;20460;-81
2023/11/05 10:17:17;;;;;;;0.80;0.70;;;10.70;99.90;;;11.16;100.00;94525.13;5023524;28;20466;-80
2023/11/05 10:19:46;;;;;;;1.00;0.70;;;10.70;99.90;;;11.17;100.00;94543.16;5022601;28;20464;-81
2023/11/05 10:22:16;;;;;;;0.70;0.70;;;10.70;99.90;;;11.16;100.00;94541.59;5024120;28;20521;-81
2023/11/05 10:24:46;;;;;;;1.07;0.80;;;10.70;99.90;;;11.14;100.00;94543.72;5027160;28;20975;-81
2023/11/05 10:27:28;;;;;;;1.10;0.80;;;10.60;99.90;;;11.08;100.00;94552.66;5031977;28;20453;-81
2023/11/05 10:29:57;;;;;;;0.70;0.60;;;10.70;99.90;;;11.11;100.00;94559.94;5028738;28;21634;-81